sensor_id;sensor_type;location;lat;lon;timestamp;P1;P2;P0
21358;PMS7003;13506;50.852;20.632;2022-12-07T00:01:16;9.00;8.25;3.75
21358;PMS7003;13506;50.852;20.632;2022-12-07T00:03:46;9.00;9.00;4.00
21358;PMS7003;13506;50.852;20.632;2022-12-07T00:06:15;11.75;11.50;5.75
21358;PMS7003;13506;50.852;20.632;2022-12-07T00:08:47;14.75;9.75;4.00
21358;PMS7003;13506;50.852;20.632;2022-12-07T00:11:15;13.25;10.50;6.75
21358;PMS7003;13506;50.852;20.632;2022-12-07T00:13:45;10.50;7.75;4.00
21358;PMS7003;13506;50.852;20.632;2022-12-07T00:16:18;10.75;8.00;3.75
21358;PMS7003;13506;50.852;20.632;2022-12-07T00:18:48;9.25;9.25;4.00
21358;PMS7003;13506;50.852;20.632;2022-12-07T00:21:15;12.75;11.50;7.00
21358;PMS7003;13506;50.852;20.632;2022-12-07T00:23:47;16.20;12.20;7.00
21358;PMS7003;13506;50.852;20.632;2022-12-07T00:26:17;10.20;10.20;5.80
21358;PMS7003;13506;50.852;20.632;2022-12-07T00:28:46;9.00;9.00;4.00
21358;PMS7003;13506;50.852;20.632;2022-12-07T00:31:16;25.60;20.20;9.20
21358;PMS7003;13506;50.852;20.632;2022-12-07T00:33:46;14.50;13.25;6.25
21358;PMS7003;13506;50.852;20.632;2022-12-07T00:36:14;10.25;9.25;3.75
21358;PMS7003;13506;50.852;20.632;2022-12-07T00:38:46;7.00;7.00;3.00
21358;PMS7003;13506;50.852;20.632;2022-12-07T00:41:15;6.75;6.50;2.50
21358;PMS7003;13506;50.852;20.632;2022-12-07T00:43:45;11.75;10.00;3.75
21358;PMS7003;13506;50.852;20.632;2022-12-07T00:46:14;9.80;9.80;4.00
21358;PMS7003;13506;50.852;20.632;2022-12-07T00:48:44;10.80;10.00;4.80
21358;PMS7003;13506;50.852;20.632;2022-12-07T00:51:13;12.00;10.00;4.00
21358;PMS7003;13506;50.852;20.632;2022-12-07T00:53:42;12.00;10.25;4.50
21358;PMS7003;13506;50.852;20.632;2022-12-07T00:56:12;12.00;9.40;4.00
21358;PMS7003;13506;50.852;20.632;2022-12-07T00:58:42;12.00;10.80;4.40
21358;PMS7003;13506;50.852;20.632;2022-12-07T01:01:10;11.00;9.50;4.00
21358;PMS7003;13506;50.852;20.632;2022-12-07T01:03:39;11.25;9.75;4.50
21358;PMS7003;13506;50.852;20.632;2022-12-07T01:06:06;16.50;12.25;6.75
21358;PMS7003;13506;50.852;20.632;2022-12-07T01:08:34;9.50;7.00;3.50
21358;PMS7003;13506;50.852;20.632;2022-12-07T01:11:02;16.00;12.00;5.60
21358;PMS7003;13506;50.852;20.632;2022-12-07T01:13:33;10.25;10.25;4.00
21358;PMS7003;13506;50.852;20.632;2022-12-07T01:16:02;11.00;10.00;4.00
21358;PMS7003;13506;50.852;20.632;2022-12-07T01:18:33;16.00;13.00;6.80
21358;PMS7003;13506;50.852;20.632;2022-12-07T01:21:03;9.00;9.00;4.50
21358;PMS7003;13506;50.852;20.632;2022-12-07T01:23:34;10.00;10.00;6.00
21358;PMS7003;13506;50.852;20.632;2022-12-07T01:26:04;15.00;12.40;5.20
21358;PMS7003;13506;50.852;20.632;2022-12-07T01:28:35;16.40;12.00;6.00
21358;PMS7003;13506;50.852;20.632;2022-12-07T01:31:04;13.80;9.60;6.00
21358;PMS7003;13506;50.852;20.632;2022-12-07T01:33:35;15.20;11.00;6.20
21358;PMS7003;13506;50.852;20.632;2022-12-07T01:36:05;13.75;12.25;7.00
21358;PMS7003;13506;50.852;20.632;2022-12-07T01:38:38;13.75;13.75;6.25
21358;PMS7003;13506;50.852;20.632;2022-12-07T01:41:06;11.75;11.75;5.50
21358;PMS7003;13506;50.852;20.632;2022-12-07T01:43:36;15.75;12.50;5.75
21358;PMS7003;13506;50.852;20.632;2022-12-07T01:46:28;13.25;12.00;6.00
21358;PMS7003;13506;50.852;20.632;2022-12-07T01:48:56;15.00;11.00;6.00
21358;PMS7003;13506;50.852;20.632;2022-12-07T01:51:25;9.00;9.00;4.00
21358;PMS7003;13506;50.852;20.632;2022-12-07T01:53:54;11.75;10.25;4.00
21358;PMS7003;13506;50.852;20.632;2022-12-07T01:56:24;12.00;9.00;4.00
21358;PMS7003;13506;50.852;20.632;2022-12-07T01:58:55;12.00;10.50;4.25
21358;PMS7003;13506;50.852;20.632;2022-12-07T02:01:25;14.00;12.60;6.60
21358;PMS7003;13506;50.852;20.632;2022-12-07T02:03:53;11.75;10.25;3.75
21358;PMS7003;13506;50.852;20.632;2022-12-07T02:06:22;13.50;11.00;5.50
21358;PMS7003;13506;50.852;20.632;2022-12-07T02:08:52;10.00;10.00;4.00
21358;PMS7003;13506;50.852;20.632;2022-12-07T02:11:20;10.75;10.75;5.50
21358;PMS7003;13506;50.852;20.632;2022-12-07T02:13:49;9.75;8.50;4.00
21358;PMS7003;13506;50.852;20.632;2022-12-07T02:16:22;10.00;8.00;3.50
21358;PMS7003;13506;50.852;20.632;2022-12-07T02:19:01;10.00;9.25;6.25
21358;PMS7003;13506;50.852;20.632;2022-12-07T02:21:55;12.00;10.75;4.00
21358;PMS7003;13506;50.852;20.632;2022-12-07T02:24:38;9.50;7.25;4.00
21358;PMS7003;13506;50.852;20.632;2022-12-07T02:30:14;10.00;10.00;4.00
21358;PMS7003;13506;50.852;20.632;2022-12-07T02:32:48;11.75;10.00;3.75
21358;PMS7003;13506;50.852;20.632;2022-12-07T02:35:25;13.00;10.25;4.50
21358;PMS7003;13506;50.852;20.632;2022-12-07T02:38:01;8.50;8.50;4.00
21358;PMS7003;13506;50.852;20.632;2022-12-07T02:40:38;8.25;8.25;4.50
21358;PMS7003;13506;50.852;20.632;2022-12-07T02:43:11;11.50;11.50;3.75
21358;PMS7003;13506;50.852;20.632;2022-12-07T02:45:47;9.75;7.50;3.75
21358;PMS7003;13506;50.852;20.632;2022-12-07T02:48:18;9.00;9.00;4.00
21358;PMS7003;13506;50.852;20.632;2022-12-07T02:50:47;9.50;7.75;3.25
21358;PMS7003;13506;50.852;20.632;2022-12-07T02:53:29;6.75;6.75;3.00
21358;PMS7003;13506;50.852;20.632;2022-12-07T02:55:59;8.75;8.75;3.75
21358;PMS7003;13506;50.852;20.632;2022-12-07T02:58:32;11.75;9.00;4.00
21358;PMS7003;13506;50.852;20.632;2022-12-07T03:01:14;6.50;4.00;2.00
21358;PMS7003;13506;50.852;20.632;2022-12-07T03:03:57;10.50;7.75;3.50
21358;PMS7003;13506;50.852;20.632;2022-12-07T03:06:39;10.00;9.50;4.00
21358;PMS7003;13506;50.852;20.632;2022-12-07T03:09:14;12.00;8.75;3.75
21358;PMS7003;13506;50.852;20.632;2022-12-07T03:11:48;8.00;7.25;3.25
21358;PMS7003;13506;50.852;20.632;2022-12-07T03:14:22;13.00;8.75;4.00
21358;PMS7003;13506;50.852;20.632;2022-12-07T03:16:57;10.50;7.00;2.75
21358;PMS7003;13506;50.852;20.632;2022-12-07T03:19:32;10.75;9.25;4.50
21358;PMS7003;13506;50.852;20.632;2022-12-07T03:22:03;8.75;8.00;3.75
21358;PMS7003;13506;50.852;20.632;2022-12-07T03:24:35;9.25;7.00;3.00
21358;PMS7003;13506;50.852;20.632;2022-12-07T03:27:10;8.50;8.50;4.00
21358;PMS7003;13506;50.852;20.632;2022-12-07T03:29:43;12.25;11.25;5.25
21358;PMS7003;13506;50.852;20.632;2022-12-07T03:32:19;8.75;7.75;3.75
21358;PMS7003;13506;50.852;20.632;2022-12-07T03:34:53;9.25;9.25;4.75
21358;PMS7003;13506;50.852;20.632;2022-12-07T03:37:29;12.25;11.75;5.75
21358;PMS7003;13506;50.852;20.632;2022-12-07T03:40:03;9.00;8.00;3.25
21358;PMS7003;13506;50.852;20.632;2022-12-07T03:42:39;8.00;6.00;3.00
21358;PMS7003;13506;50.852;20.632;2022-12-07T03:45:08;14.75;10.25;3.75
21358;PMS7003;13506;50.852;20.632;2022-12-07T03:47:40;6.25;6.25;3.25
21358;PMS7003;13506;50.852;20.632;2022-12-07T03:50:14;10.60;9.40;3.80
21358;PMS7003;13506;50.852;20.632;2022-12-07T03:52:51;11.25;11.25;5.00
21358;PMS7003;13506;50.852;20.632;2022-12-07T03:55:24;10.25;7.50;3.00
21358;PMS7003;13506;50.852;20.632;2022-12-07T03:57:58;7.50;7.50;3.25
21358;PMS7003;13506;50.852;20.632;2022-12-07T04:00:29;6.00;5.50;3.00
21358;PMS7003;13506;50.852;20.632;2022-12-07T04:02:59;9.75;9.00;5.50
21358;PMS7003;13506;50.852;20.632;2022-12-07T04:05:26;11.00;10.25;4.50
21358;PMS7003;13506;50.852;20.632;2022-12-07T04:07:55;15.25;8.25;3.75
21358;PMS7003;13506;50.852;20.632;2022-12-07T04:10:23;13.25;9.00;6.00
21358;PMS7003;13506;50.852;20.632;2022-12-07T04:12:51;11.75;11.50;4.50
21358;PMS7003;13506;50.852;20.632;2022-12-07T04:15:18;10.50;9.00;4.00
21358;PMS7003;13506;50.852;20.632;2022-12-07T04:17:46;14.50;12.75;5.75
21358;PMS7003;13506;50.852;20.632;2022-12-07T04:20:15;10.50;10.50;4.00
21358;PMS7003;13506;50.852;20.632;2022-12-07T04:22:43;12.25;10.00;6.00
21358;PMS7003;13506;50.852;20.632;2022-12-07T04:25:11;11.75;9.50;4.00
21358;PMS7003;13506;50.852;20.632;2022-12-07T04:27:39;12.00;11.25;4.00
21358;PMS7003;13506;50.852;20.632;2022-12-07T04:30:07;10.00;9.25;4.00
21358;PMS7003;13506;50.852;20.632;2022-12-07T04:32:35;12.50;10.75;4.00
21358;PMS7003;13506;50.852;20.632;2022-12-07T04:35:04;12.75;10.50;6.00
21358;PMS7003;13506;50.852;20.632;2022-12-07T04:37:34;13.50;11.75;5.00
21358;PMS7003;13506;50.852;20.632;2022-12-07T04:40:05;11.75;10.25;4.00
21358;PMS7003;13506;50.852;20.632;2022-12-07T04:42:36;12.25;9.75;5.50
21358;PMS7003;13506;50.852;20.632;2022-12-07T04:45:04;9.00;9.00;3.80
21358;PMS7003;13506;50.852;20.632;2022-12-07T04:47:33;10.40;10.00;3.40
21358;PMS7003;13506;50.852;20.632;2022-12-07T04:50:01;10.00;9.00;3.25
21358;PMS7003;13506;50.852;20.632;2022-12-07T04:52:31;12.75;12.75;6.25
21358;PMS7003;13506;50.852;20.632;2022-12-07T04:55:00;12.25;12.25;5.75
21358;PMS7003;13506;50.852;20.632;2022-12-07T04:57:29;10.00;10.00;6.00
21358;PMS7003;13506;50.852;20.632;2022-12-07T04:59:57;13.60;13.00;6.40
21358;PMS7003;13506;50.852;20.632;2022-12-07T05:02:25;14.60;13.00;5.60
21358;PMS7003;13506;50.852;20.632;2022-12-07T05:04:53;12.00;12.00;6.50
21358;PMS7003;13506;50.852;20.632;2022-12-07T05:07:21;16.40;15.20;8.60
21358;PMS7003;13506;50.852;20.632;2022-12-07T05:09:48;12.50;12.50;7.00
21358;PMS7003;13506;50.852;20.632;2022-12-07T05:12:18;12.00;12.00;6.40
21358;PMS7003;13506;50.852;20.632;2022-12-07T05:14:45;17.20;12.60;5.80
21358;PMS7003;13506;50.852;20.632;2022-12-07T05:17:13;16.00;13.00;7.00
21358;PMS7003;13506;50.852;20.632;2022-12-07T05:19:42;12.00;12.00;7.00
21358;PMS7003;13506;50.852;20.632;2022-12-07T05:22:09;17.25;13.00;6.25
21358;PMS7003;13506;50.852;20.632;2022-12-07T05:24:38;17.80;15.40;7.40
21358;PMS7003;13506;50.852;20.632;2022-12-07T05:27:06;12.80;12.80;4.60
21358;PMS7003;13506;50.852;20.632;2022-12-07T05:29:36;13.80;13.40;6.40
21358;PMS7003;13506;50.852;20.632;2022-12-07T05:32:04;9.40;9.00;4.40
21358;PMS7003;13506;50.852;20.632;2022-12-07T05:34:32;15.00;12.20;6.20
21358;PMS7003;13506;50.852;20.632;2022-12-07T05:37:00;14.50;13.25;7.00
21358;PMS7003;13506;50.852;20.632;2022-12-07T05:39:27;12.40;12.40;6.20
21358;PMS7003;13506;50.852;20.632;2022-12-07T05:41:55;13.50;13.50;5.75
21358;PMS7003;13506;50.852;20.632;2022-12-07T05:44:39;18.25;13.25;6.25
21358;PMS7003;13506;50.852;20.632;2022-12-07T05:47:08;13.80;13.20;7.20
21358;PMS7003;13506;50.852;20.632;2022-12-07T05:49:36;16.00;13.40;6.00
21358;PMS7003;13506;50.852;20.632;2022-12-07T05:52:04;19.80;14.80;7.00
21358;PMS7003;13506;50.852;20.632;2022-12-07T05:54:33;14.00;12.00;6.20
21358;PMS7003;13506;50.852;20.632;2022-12-07T05:57:01;14.75;14.75;7.50
21358;PMS7003;13506;50.852;20.632;2022-12-07T05:59:29;9.75;9.00;5.00
21358;PMS7003;13506;50.852;20.632;2022-12-07T06:01:57;15.00;10.25;6.25
21358;PMS7003;13506;50.852;20.632;2022-12-07T06:04:27;9.75;9.00;4.00
21358;PMS7003;13506;50.852;20.632;2022-12-07T06:06:58;14.00;9.50;6.00
21358;PMS7003;13506;50.852;20.632;2022-12-07T06:09:27;11.00;10.75;6.00
21358;PMS7003;13506;50.852;20.632;2022-12-07T06:11:55;13.00;10.20;4.00
21358;PMS7003;13506;50.852;20.632;2022-12-07T06:14:41;12.40;9.00;3.40
21358;PMS7003;13506;50.852;20.632;2022-12-07T06:17:11;10.00;10.00;4.00
21358;PMS7003;13506;50.852;20.632;2022-12-07T06:19:40;9.25;9.00;4.00
21358;PMS7003;13506;50.852;20.632;2022-12-07T06:22:09;7.75;7.75;3.50
21358;PMS7003;13506;50.852;20.632;2022-12-07T06:24:37;10.50;8.75;3.50
21358;PMS7003;13506;50.852;20.632;2022-12-07T06:27:05;9.00;7.75;3.50
21358;PMS7003;13506;50.852;20.632;2022-12-07T06:29:33;11.00;10.00;4.00
21358;PMS7003;13506;50.852;20.632;2022-12-07T06:32:02;9.00;8.80;4.00
21358;PMS7003;13506;50.852;20.632;2022-12-07T06:34:31;7.25;6.50;3.00
21358;PMS7003;13506;50.852;20.632;2022-12-07T06:37:00;11.25;8.00;2.25
21358;PMS7003;13506;50.852;20.632;2022-12-07T06:39:28;14.00;9.25;4.00
21358;PMS7003;13506;50.852;20.632;2022-12-07T06:41:56;11.75;9.25;4.00
21358;PMS7003;13506;50.852;20.632;2022-12-07T06:44:25;11.25;10.00;3.25
21358;PMS7003;13506;50.852;20.632;2022-12-07T06:46:53;9.00;9.00;3.50
21358;PMS7003;13506;50.852;20.632;2022-12-07T06:49:20;9.00;7.00;3.50
21358;PMS7003;13506;50.852;20.632;2022-12-07T06:51:50;12.00;9.25;4.00
21358;PMS7003;13506;50.852;20.632;2022-12-07T06:54:17;7.00;7.00;3.00
21358;PMS7003;13506;50.852;20.632;2022-12-07T06:56:45;9.00;7.75;3.25
21358;PMS7003;13506;50.852;20.632;2022-12-07T06:59:13;13.25;10.00;4.50
21358;PMS7003;13506;50.852;20.632;2022-12-07T07:01:40;10.25;9.00;3.50
21358;PMS7003;13506;50.852;20.632;2022-12-07T07:04:08;9.25;9.00;3.25
21358;PMS7003;13506;50.852;20.632;2022-12-07T07:06:36;7.50;7.00;3.75
21358;PMS7003;13506;50.852;20.632;2022-12-07T07:09:05;10.75;9.00;4.00
21358;PMS7003;13506;50.852;20.632;2022-12-07T07:11:35;11.25;8.75;3.75
21358;PMS7003;13506;50.852;20.632;2022-12-07T07:14:02;9.75;9.75;5.00
21358;PMS7003;13506;50.852;20.632;2022-12-07T07:16:30;12.75;7.50;4.50
21358;PMS7003;13506;50.852;20.632;2022-12-07T07:18:58;9.50;7.50;3.50
21358;PMS7003;13506;50.852;20.632;2022-12-07T07:21:25;13.75;10.75;4.50
21358;PMS7003;13506;50.852;20.632;2022-12-07T07:23:53;10.75;9.25;4.50
21358;PMS7003;13506;50.852;20.632;2022-12-07T07:26:24;9.00;7.00;3.00
21358;PMS7003;13506;50.852;20.632;2022-12-07T07:28:51;14.00;13.00;4.00
21358;PMS7003;13506;50.852;20.632;2022-12-07T07:31:19;10.25;9.00;4.00
21358;PMS7003;13506;50.852;20.632;2022-12-07T07:33:47;13.75;12.00;4.00
21358;PMS7003;13506;50.852;20.632;2022-12-07T07:36:15;15.20;10.60;4.40
21358;PMS7003;13506;50.852;20.632;2022-12-07T07:38:42;11.75;11.25;5.50
21358;PMS7003;13506;50.852;20.632;2022-12-07T07:41:10;9.40;9.40;4.00
21358;PMS7003;13506;50.852;20.632;2022-12-07T07:43:40;12.75;9.50;5.25
21358;PMS7003;13506;50.852;20.632;2022-12-07T07:46:07;15.50;11.50;5.50
21358;PMS7003;13506;50.852;20.632;2022-12-07T07:48:35;11.25;10.00;4.00
21358;PMS7003;13506;50.852;20.632;2022-12-07T07:51:04;11.00;11.00;5.00
21358;PMS7003;13506;50.852;20.632;2022-12-07T07:53:33;9.75;7.25;3.50
21358;PMS7003;13506;50.852;20.632;2022-12-07T07:56:01;10.60;8.60;3.80
21358;PMS7003;13506;50.852;20.632;2022-12-07T07:58:29;13.80;12.20;5.80
21358;PMS7003;13506;50.852;20.632;2022-12-07T08:00:58;14.75;14.00;5.50
21358;PMS7003;13506;50.852;20.632;2022-12-07T08:03:30;10.25;8.25;4.00
21358;PMS7003;13506;50.852;20.632;2022-12-07T08:05:58;9.25;5.75;2.75
21358;PMS7003;13506;50.852;20.632;2022-12-07T08:08:27;9.75;9.25;6.00
21358;PMS7003;13506;50.852;20.632;2022-12-07T08:10:55;14.25;11.25;3.75
21358;PMS7003;13506;50.852;20.632;2022-12-07T08:13:25;14.60;10.00;5.60
21358;PMS7003;13506;50.852;20.632;2022-12-07T08:15:53;10.00;8.00;4.00
21358;PMS7003;13506;50.852;20.632;2022-12-07T08:18:22;7.75;6.50;1.50
21358;PMS7003;13506;50.852;20.632;2022-12-07T08:20:50;10.20;9.40;3.80
21358;PMS7003;13506;50.852;20.632;2022-12-07T08:23:17;11.25;8.25;3.50
21358;PMS7003;13506;50.852;20.632;2022-12-07T08:25:45;7.75;7.50;3.00
21358;PMS7003;13506;50.852;20.632;2022-12-07T08:28:13;11.00;9.25;3.75
21358;PMS7003;13506;50.852;20.632;2022-12-07T08:30:42;8.25;6.75;3.00
21358;PMS7003;13506;50.852;20.632;2022-12-07T08:33:09;7.00;6.50;3.00
21358;PMS7003;13506;50.852;20.632;2022-12-07T08:35:39;11.50;9.75;4.00
21358;PMS7003;13506;50.852;20.632;2022-12-07T08:38:06;8.25;8.00;3.25
21358;PMS7003;13506;50.852;20.632;2022-12-07T08:40:34;9.00;7.25;2.00
21358;PMS7003;13506;50.852;20.632;2022-12-07T08:43:02;7.00;7.00;3.00
21358;PMS7003;13506;50.852;20.632;2022-12-07T08:45:30;11.25;7.50;4.00
21358;PMS7003;13506;50.852;20.632;2022-12-07T08:48:01;11.50;11.50;5.50
21358;PMS7003;13506;50.852;20.632;2022-12-07T08:50:34;10.00;9.00;3.75
21358;PMS7003;13506;50.852;20.632;2022-12-07T08:53:05;8.75;8.00;1.50
21358;PMS7003;13506;50.852;20.632;2022-12-07T08:55:34;12.00;7.50;3.00
21358;PMS7003;13506;50.852;20.632;2022-12-07T08:58:01;6.50;5.00;3.00
21358;PMS7003;13506;50.852;20.632;2022-12-07T09:00:30;9.25;6.75;3.25
21358;PMS7003;13506;50.852;20.632;2022-12-07T09:02:58;7.00;6.25;3.00
21358;PMS7003;13506;50.852;20.632;2022-12-07T09:05:26;6.00;6.00;3.00
21358;PMS7003;13506;50.852;20.632;2022-12-07T09:07:55;6.00;6.00;3.00
21358;PMS7003;13506;50.852;20.632;2022-12-07T09:10:27;9.00;7.00;3.50
21358;PMS7003;13506;50.852;20.632;2022-12-07T09:12:56;11.00;9.80;4.00
21358;PMS7003;13506;50.852;20.632;2022-12-07T09:15:26;9.00;9.00;6.00
21358;PMS7003;13506;50.852;20.632;2022-12-07T09:17:54;9.50;7.75;3.00
21358;PMS7003;13506;50.852;20.632;2022-12-07T09:20:22;10.00;9.00;3.75
21358;PMS7003;13506;50.852;20.632;2022-12-07T09:22:50;6.75;6.00;3.00
21358;PMS7003;13506;50.852;20.632;2022-12-07T09:25:19;6.50;6.50;1.50
21358;PMS7003;13506;50.852;20.632;2022-12-07T09:27:46;8.00;5.00;1.25
21358;PMS7003;13506;50.852;20.632;2022-12-07T09:30:15;9.00;7.00;3.00
21358;PMS7003;13506;50.852;20.632;2022-12-07T09:32:43;12.25;10.75;4.00
21358;PMS7003;13506;50.852;20.632;2022-12-07T09:35:11;12.50;11.75;6.25
21358;PMS7003;13506;50.852;20.632;2022-12-07T09:37:38;10.25;8.50;3.00
21358;PMS7003;13506;50.852;20.632;2022-12-07T09:40:06;8.75;8.25;3.25
21358;PMS7003;13506;50.852;20.632;2022-12-07T09:42:37;8.00;7.00;2.00
21358;PMS7003;13506;50.852;20.632;2022-12-07T09:45:12;7.50;7.50;3.50
21358;PMS7003;13506;50.852;20.632;2022-12-07T09:47:45;9.00;8.75;2.50
21358;PMS7003;13506;50.852;20.632;2022-12-07T09:50:14;7.00;6.00;1.00
21358;PMS7003;13506;50.852;20.632;2022-12-07T09:52:46;7.75;7.00;2.75
21358;PMS7003;13506;50.852;20.632;2022-12-07T09:55:16;8.50;7.75;3.00
21358;PMS7003;13506;50.852;20.632;2022-12-07T09:57:49;12.00;6.50;4.00
21358;PMS7003;13506;50.852;20.632;2022-12-07T10:00:19;9.50;6.00;3.00
21358;PMS7003;13506;50.852;20.632;2022-12-07T10:02:50;7.50;7.50;3.00
21358;PMS7003;13506;50.852;20.632;2022-12-07T10:05:22;7.25;6.50;3.00
21358;PMS7003;13506;50.852;20.632;2022-12-07T10:07:54;7.75;7.75;3.00
21358;PMS7003;13506;50.852;20.632;2022-12-07T10:10:23;6.00;6.00;3.00
21358;PMS7003;13506;50.852;20.632;2022-12-07T10:12:58;5.00;5.00;2.50
21358;PMS7003;13506;50.852;20.632;2022-12-07T10:15:42;9.00;9.00;3.00
21358;PMS7003;13506;50.852;20.632;2022-12-07T10:18:19;8.50;8.00;3.00
21358;PMS7003;13506;50.852;20.632;2022-12-07T10:20:59;6.75;6.00;3.00
21358;PMS7003;13506;50.852;20.632;2022-12-07T10:23:58;5.50;5.50;3.00
21358;PMS7003;13506;50.852;20.632;2022-12-07T10:26:29;7.50;6.00;1.00
21358;PMS7003;13506;50.852;20.632;2022-12-07T10:29:01;7.50;5.50;1.00
21358;PMS7003;13506;50.852;20.632;2022-12-07T10:31:41;10.50;10.50;3.75
21358;PMS7003;13506;50.852;20.632;2022-12-07T10:34:15;6.50;6.00;3.00
21358;PMS7003;13506;50.852;20.632;2022-12-07T10:36:50;9.50;9.00;5.50
21358;PMS7003;13506;50.852;20.632;2022-12-07T10:39:19;8.00;8.00;3.00
21358;PMS7003;13506;50.852;20.632;2022-12-07T10:41:55;14.25;9.00;4.00
21358;PMS7003;13506;50.852;20.632;2022-12-07T10:44:27;7.25;7.25;3.25
21358;PMS7003;13506;50.852;20.632;2022-12-07T10:50:11;9.00;8.25;3.00
21358;PMS7003;13506;50.852;20.632;2022-12-07T10:53:01;9.00;7.00;3.00
21358;PMS7003;13506;50.852;20.632;2022-12-07T10:56:03;9.00;7.00;3.00
21358;PMS7003;13506;50.852;20.632;2022-12-07T10:58:53;7.25;7.25;3.25
21358;PMS7003;13506;50.852;20.632;2022-12-07T11:01:33;6.75;6.75;1.50
21358;PMS7003;13506;50.852;20.632;2022-12-07T11:04:16;11.00;6.00;3.00
21358;PMS7003;13506;50.852;20.632;2022-12-07T11:06:54;6.25;6.25;3.00
21358;PMS7003;13506;50.852;20.632;2022-12-07T11:09:46;6.25;6.25;3.00
21358;PMS7003;13506;50.852;20.632;2022-12-07T11:12:24;7.50;7.50;2.50
21358;PMS7003;13506;50.852;20.632;2022-12-07T11:15:01;8.00;8.00;4.00
21358;PMS7003;13506;50.852;20.632;2022-12-07T11:17:42;10.25;8.75;4.00
21358;PMS7003;13506;50.852;20.632;2022-12-07T11:20:25;8.50;8.50;5.50
21358;PMS7003;13506;50.852;20.632;2022-12-07T11:23:10;9.75;9.25;4.00
21358;PMS7003;13506;50.852;20.632;2022-12-07T11:25:49;7.00;7.00;3.00
21358;PMS7003;13506;50.852;20.632;2022-12-07T11:28:29;9.50;8.00;3.00
21358;PMS7003;13506;50.852;20.632;2022-12-07T11:31:11;11.00;9.00;3.25
21358;PMS7003;13506;50.852;20.632;2022-12-07T11:33:49;11.00;9.00;4.00
21358;PMS7003;13506;50.852;20.632;2022-12-07T11:36:31;11.00;11.00;4.00
21358;PMS7003;13506;50.852;20.632;2022-12-07T11:39:04;9.25;8.00;4.00
21358;PMS7003;13506;50.852;20.632;2022-12-07T11:41:43;11.50;10.50;4.00
21358;PMS7003;13506;50.852;20.632;2022-12-07T11:44:17;9.00;7.50;3.00
21358;PMS7003;13506;50.852;20.632;2022-12-07T11:46:55;16.25;11.75;5.50
21358;PMS7003;13506;50.852;20.632;2022-12-07T11:49:35;11.25;11.25;6.00
21358;PMS7003;13506;50.852;20.632;2022-12-07T11:52:10;16.00;13.00;6.50
21358;PMS7003;13506;50.852;20.632;2022-12-07T11:54:47;12.00;10.80;6.20
21358;PMS7003;13506;50.852;20.632;2022-12-07T11:57:20;11.75;10.50;6.00
21358;PMS7003;13506;50.852;20.632;2022-12-07T11:59:56;11.80;9.60;4.00
21358;PMS7003;13506;50.852;20.632;2022-12-07T12:02:32;6.25;6.00;2.50
21358;PMS7003;13506;50.852;20.632;2022-12-07T12:05:07;12.00;12.00;6.00
21358;PMS7003;13506;50.852;20.632;2022-12-07T12:07:43;12.50;10.50;4.50
21358;PMS7003;13506;50.852;20.632;2022-12-07T12:10:15;15.75;15.50;8.00
21358;PMS7003;13506;50.852;20.632;2022-12-07T12:12:54;10.00;10.00;5.50
21358;PMS7003;13506;50.852;20.632;2022-12-07T12:15:39;12.25;10.50;4.00
21358;PMS7003;13506;50.852;20.632;2022-12-07T12:18:35;15.75;12.75;4.25
21358;PMS7003;13506;50.852;20.632;2022-12-07T12:21:17;13.20;12.00;7.00
21358;PMS7003;13506;50.852;20.632;2022-12-07T12:23:50;16.00;13.80;7.40
21358;PMS7003;13506;50.852;20.632;2022-12-07T12:26:24;9.25;9.25;4.25
21358;PMS7003;13506;50.852;20.632;2022-12-07T12:28:55;12.50;11.75;6.00
21358;PMS7003;13506;50.852;20.632;2022-12-07T12:31:31;12.75;12.00;6.00
21358;PMS7003;13506;50.852;20.632;2022-12-07T12:34:03;17.80;11.40;5.20
21358;PMS7003;13506;50.852;20.632;2022-12-07T12:36:57;12.75;12.75;6.00
21358;PMS7003;13506;50.852;20.632;2022-12-07T12:39:26;14.40;11.40;6.00
21358;PMS7003;13506;50.852;20.632;2022-12-07T12:41:57;13.00;11.25;6.25
21358;PMS7003;13506;50.852;20.632;2022-12-07T12:44:40;14.40;14.00;6.60
21358;PMS7003;13506;50.852;20.632;2022-12-07T12:47:53;12.00;10.80;5.80
21358;PMS7003;13506;50.852;20.632;2022-12-07T12:50:25;14.80;12.00;4.80
21358;PMS7003;13506;50.852;20.632;2022-12-07T12:53:04;16.60;12.60;7.00
21358;PMS7003;13506;50.852;20.632;2022-12-07T12:58:44;12.60;11.60;6.00
21358;PMS7003;13506;50.852;20.632;2022-12-07T13:10:22;17.40;16.00;8.60
21358;PMS7003;13506;50.852;20.632;2022-12-07T13:25:26;23.20;17.80;10.00
21358;PMS7003;13506;50.852;20.632;2022-12-07T13:28:07;14.40;13.40;6.60
21358;PMS7003;13506;50.852;20.632;2022-12-07T13:30:49;22.60;19.60;9.80
21358;PMS7003;13506;50.852;20.632;2022-12-07T13:33:30;15.80;15.20;7.40
21358;PMS7003;13506;50.852;20.632;2022-12-07T13:36:01;19.40;16.80;8.80
21358;PMS7003;13506;50.852;20.632;2022-12-07T13:38:30;17.20;15.60;7.00
21358;PMS7003;13506;50.852;20.632;2022-12-07T13:41:03;18.20;15.40;7.20
21358;PMS7003;13506;50.852;20.632;2022-12-07T13:43:43;20.60;13.80;7.60
21358;PMS7003;13506;50.852;20.632;2022-12-07T13:46:12;22.20;16.60;9.00
21358;PMS7003;13506;50.852;20.632;2022-12-07T13:48:44;17.00;15.00;8.75
21358;PMS7003;13506;50.852;20.632;2022-12-07T13:51:17;17.00;13.20;8.20
21358;PMS7003;13506;50.852;20.632;2022-12-07T13:53:47;23.80;16.20;8.20
21358;PMS7003;13506;50.852;20.632;2022-12-07T13:56:20;19.40;18.20;9.00
21358;PMS7003;13506;50.852;20.632;2022-12-07T13:58:52;20.00;14.00;7.60
21358;PMS7003;13506;50.852;20.632;2022-12-07T14:01:21;17.20;15.60;7.00
21358;PMS7003;13506;50.852;20.632;2022-12-07T14:03:48;18.40;15.60;8.80
21358;PMS7003;13506;50.852;20.632;2022-12-07T14:06:18;22.60;20.00;11.20
21358;PMS7003;13506;50.852;20.632;2022-12-07T14:09:16;24.20;21.80;10.00
21358;PMS7003;13506;50.852;20.632;2022-12-07T14:11:48;21.60;17.00;9.60
21358;PMS7003;13506;50.852;20.632;2022-12-07T14:14:19;20.20;19.40;10.20
21358;PMS7003;13506;50.852;20.632;2022-12-07T14:16:56;25.20;19.60;10.60
21358;PMS7003;13506;50.852;20.632;2022-12-07T14:19:45;26.40;22.20;12.40
21358;PMS7003;13506;50.852;20.632;2022-12-07T14:22:25;25.80;21.40;12.80
21358;PMS7003;13506;50.852;20.632;2022-12-07T14:25:14;28.40;18.40;11.40
21358;PMS7003;13506;50.852;20.632;2022-12-07T14:27:48;23.20;21.80;11.00
21358;PMS7003;13506;50.852;20.632;2022-12-07T14:30:21;22.00;18.20;10.00
21358;PMS7003;13506;50.852;20.632;2022-12-07T14:32:51;21.40;20.00;11.00
21358;PMS7003;13506;50.852;20.632;2022-12-07T14:35:23;28.60;24.60;10.20
21358;PMS7003;13506;50.852;20.632;2022-12-07T14:37:51;23.40;20.80;11.20
21358;PMS7003;13506;50.852;20.632;2022-12-07T14:40:19;26.40;19.80;10.00
21358;PMS7003;13506;50.852;20.632;2022-12-07T14:42:52;31.80;27.80;14.80
21358;PMS7003;13506;50.852;20.632;2022-12-07T14:45:24;23.00;22.80;15.00
21358;PMS7003;13506;50.852;20.632;2022-12-07T14:47:52;32.20;23.80;14.20
21358;PMS7003;13506;50.852;20.632;2022-12-07T14:50:20;24.20;24.20;15.00
21358;PMS7003;13506;50.852;20.632;2022-12-07T14:52:49;31.20;26.40;13.00
21358;PMS7003;13506;50.852;20.632;2022-12-07T14:55:23;29.00;23.00;12.60